Time;durP1;ratioP1;P1;durP2;ratioP2;P2;SDS_P1;SDS_P2;PMS_P1;PMS_P2;Temp;Humidity;BMP_temperature;BMP_pressure;BME280_temperature;BME280_humidity;BME280_pressure;Samples;Min_cycle;Max_cycle;Signal;HPM_P1;HPM_P2
2023/01/20 00:01:36;;;;;;;37.00;15.45;;;0.60;99.90;;;;;;5076976;28;25065;-71
2023/01/20 00:04:03;;;;;;;43.05;16.52;;;0.60;99.90;;;;;;5077000;28;25117;-71
2023/01/20 00:06:31;;;;;;;35.17;16.52;;;0.70;99.90;;;;;;5076940;28;25054;-72
2023/01/20 00:09:00;;;;;;;38.33;14.55;;;0.60;99.90;;;;;;5077058;28;25149;-71
2023/01/20 00:11:29;;;;;;;38.38;14.68;;;0.60;99.90;;;;;;5076887;28;25059;-72
2023/01/20 00:13:58;;;;;;;36.63;14.90;;;0.60;99.90;;;;;;5076814;28;25074;-71
2023/01/20 00:16:27;;;;;;;36.58;14.07;;;0.60;99.90;;;;;;5075729;28;25053;-71
2023/01/20 00:18:54;;;;;;;38.65;15.02;;;0.60;99.90;;;;;;5075855;28;25062;-71
2023/01/20 00:21:22;;;;;;;33.45;14.95;;;0.70;99.90;;;;;;5076577;28;25110;-71
2023/01/20 00:23:50;;;;;;;40.50;14.20;;;0.60;99.90;;;;;;5076999;28;25116;-71
2023/01/20 00:26:19;;;;;;;40.33;15.55;;;0.70;99.90;;;;;;5074622;28;25054;-72
2023/01/20 00:28:47;;;;;;;37.33;14.98;;;0.70;99.90;;;;;;5077358;28;25069;-71
2023/01/20 00:31:20;;;;;;;38.58;14.70;;;0.70;99.90;;;;;;5075508;28;25122;-71
2023/01/20 00:33:48;;;;;;;30.52;13.82;;;0.70;99.90;;;;;;5076575;28;25105;-71
2023/01/20 00:36:17;;;;;;;34.03;14.18;;;0.70;99.90;;;;;;5077895;28;25060;-72
2023/01/20 00:38:44;;;;;;;28.80;13.32;;;0.70;99.90;;;;;;5096778;28;25057;-72
2023/01/20 00:41:11;;;;;;;31.85;13.00;;;0.70;99.90;;;;;;5079345;28;25073;-71
2023/01/20 00:43:39;;;;;;;27.88;12.68;;;0.70;99.90;;;;;;5079240;28;25069;-71
2023/01/20 00:46:07;;;;;;;33.35;14.15;;;0.70;99.90;;;;;;5096918;28;25112;-71
2023/01/20 00:48:35;;;;;;;32.53;13.52;;;0.70;99.90;;;;;;5096743;28;25089;-72
2023/01/20 00:51:03;;;;;;;35.17;12.80;;;0.70;99.90;;;;;;5079492;28;25082;-71
2023/01/20 00:53:31;;;;;;;28.67;13.98;;;0.80;99.90;;;;;;5078584;28;25054;-72
2023/01/20 00:55:58;;;;;;;28.98;12.07;;;0.70;99.90;;;;;;5078950;28;25094;-71
2023/01/20 00:58:26;;;;;;;29.77;14.00;;;0.80;99.90;;;;;;5096577;28;25067;-71
2023/01/20 01:00:54;;;;;;;29.77;12.15;;;0.80;99.90;;;;;;5096917;28;25097;-71
2023/01/20 01:03:22;;;;;;;30.08;14.73;;;0.80;99.90;;;;;;5096387;28;25058;-71
2023/01/20 01:05:50;;;;;;;35.15;13.27;;;0.80;99.90;;;;;;5078531;28;25075;-72
2023/01/20 01:08:17;;;;;;;36.20;14.60;;;0.80;99.90;;;;;;5078387;28;25112;-71
2023/01/20 01:10:45;;;;;;;30.42;13.90;;;0.80;99.90;;;;;;5096525;28;25107;-71
2023/01/20 01:13:12;;;;;;;32.40;13.43;;;0.80;99.90;;;;;;5096276;28;25064;-71
2023/01/20 01:15:47;;;;;;;30.27;12.95;;;0.80;99.90;;;;;;5096397;28;25064;-71
2023/01/20 01:18:14;;;;;;;38.30;13.88;;;0.80;99.90;;;;;;5096873;28;25077;-72
2023/01/20 01:20:43;;;;;;;27.40;12.60;;;0.80;99.90;;;;;;5097217;28;25107;-71
2023/01/20 01:23:11;;;;;;;34.35;14.38;;;0.80;99.90;;;;;;5096715;28;25107;-71
2023/01/20 01:25:39;;;;;;;36.72;13.95;;;0.80;99.90;;;;;;5096323;28;25062;-71
2023/01/20 01:28:06;;;;;;;36.70;15.38;;;0.80;99.90;;;;;;5096185;28;25154;-72
2023/01/20 01:30:33;;;;;;;37.70;14.90;;;0.80;99.90;;;;;;5096932;28;25074;-71
2023/01/20 01:33:00;;;;;;;34.85;13.75;;;0.80;99.90;;;;;;5078216;28;25042;-71
2023/01/20 01:35:28;;;;;;;30.67;13.85;;;0.80;99.90;;;;;;5096200;28;25092;-71
2023/01/20 01:37:55;;;;;;;35.92;15.10;;;0.80;99.90;;;;;;5097097;28;25067;-71
2023/01/20 01:40:23;;;;;;;34.20;14.13;;;0.70;99.90;;;;;;5100199;28;25101;-71
2023/01/20 01:42:50;;;;;;;34.42;14.68;;;0.70;99.90;;;;;;5100592;28;25107;-71
2023/01/20 01:45:22;;;;;;;33.20;14.98;;;0.70;99.90;;;;;;5100558;28;25059;-71
2023/01/20 01:47:53;;;;;;;31.48;14.18;;;0.80;99.90;;;;;;5100494;28;25074;-72
2023/01/20 01:50:47;;;;;;;32.30;13.85;;;0.70;99.90;;;;;;5100019;28;25130;-72
2023/01/20 01:53:15;;;;;;;32.90;13.30;;;0.70;99.90;;;;;;5100318;28;25064;-72
2023/01/20 01:55:56;;;;;;;33.40;14.27;;;0.70;99.90;;;;;;5099859;28;25108;-71
2023/01/20 01:58:32;;;;;;;36.53;14.82;;;0.70;99.90;;;;;;5100025;28;25054;-72
2023/01/20 02:00:59;;;;;;;38.72;14.65;;;0.70;99.90;;;;;;5098541;28;25059;-71
2023/01/20 02:03:58;;;;;;;40.22;16.70;;;0.70;99.90;;;;;;5081729;28;25076;-72
2023/01/20 02:06:31;;;;;;;32.72;15.50;;;0.70;99.90;;;;;;5099594;28;25115;-71
2023/01/20 02:09:01;;;;;;;37.22;14.40;;;0.70;99.90;;;;;;5099959;28;25071;-71
2023/01/20 02:11:32;;;;;;;28.55;13.63;;;0.70;99.90;;;;;;5100069;28;25052;-71
2023/01/20 02:13:59;;;;;;;34.42;14.23;;;0.70;99.90;;;;;;5099773;28;25072;-71
2023/01/20 02:16:59;;;;;;;34.92;13.98;;;0.70;99.90;;;;;;5099630;28;25060;-72
2023/01/20 02:19:53;;;;;;;36.83;13.60;;;0.70;99.90;;;;;;5099822;28;25053;-71
2023/01/20 02:22:52;;;;;;;34.65;13.77;;;0.70;99.90;;;;;;5099184;28;25133;-72
2023/01/20 02:25:43;;;;;;;28.45;13.35;;;0.70;99.90;;;;;;5099827;28;25074;-72
2023/01/20 02:28:14;;;;;;;28.85;13.40;;;0.70;99.90;;;;;;5081218;28;25044;-71
2023/01/20 02:30:47;;;;;;;31.23;12.80;;;0.60;99.90;;;;;;5099867;28;25087;-72
2023/01/20 02:33:49;;;;;;;30.30;14.50;;;0.60;99.90;;;;;;5099634;28;25065;-71
2023/01/20 02:36:33;;;;;;;36.80;14.93;;;0.60;99.90;;;;;;5080867;28;25101;-71
2023/01/20 02:39:26;;;;;;;36.25;15.25;;;0.50;99.90;;;;;;5081143;28;25074;-71
2023/01/20 02:42:29;;;;;;;30.13;14.23;;;0.50;99.90;;;;;;5099100;28;25046;-72
2023/01/20 02:45:14;;;;;;;31.70;13.18;;;0.40;99.90;;;;;;5062008;28;25083;-72
2023/01/20 02:47:50;;;;;;;33.78;14.57;;;0.40;99.90;;;;;;5099363;28;25068;-71
2023/01/20 02:50:40;;;;;;;28.35;12.65;;;0.30;99.90;;;;;;5097857;28;25099;-71
2023/01/20 02:53:10;;;;;;;34.45;13.07;;;0.30;99.90;;;;;;5099193;28;25109;-71
2023/01/20 02:55:48;;;;;;;33.70;13.73;;;0.30;99.90;;;;;;5098732;28;25113;-71
2023/01/20 02:58:39;;;;;;;31.00;13.80;;;0.20;99.90;;;;;;5080625;28;25055;-71
2023/01/20 03:01:17;;;;;;;32.90;14.23;;;0.10;99.90;;;;;;5098507;28;25088;-71
2023/01/20 03:03:49;;;;;;;33.92;15.10;;;0.00;99.90;;;;;;5099061;28;25066;-72
2023/01/20 03:06:24;;;;;;;39.10;15.88;;;-0.10;99.90;;;;;;5098695;28;25078;-71
2023/01/20 03:08:53;;;;;;;36.03;14.85;;;-0.10;99.90;;;;;;5099098;28;25079;-71
2023/01/20 03:11:21;;;;;;;41.85;16.17;;;-0.10;99.90;;;;;;5098335;28;25138;-71
2023/01/20 03:13:59;;;;;;;35.35;14.77;;;-0.10;99.90;;;;;;5098905;28;25055;-71
2023/01/20 03:16:28;;;;;;;38.08;16.27;;;-0.20;99.90;;;;;;5080356;28;25395;-71
2023/01/20 03:18:55;;;;;;;36.53;16.02;;;-0.20;99.90;;;;;;5080468;28;25078;-71
2023/01/20 03:21:23;;;;;;;37.38;15.65;;;-0.10;99.90;;;;;;5080844;28;25070;-71
2023/01/20 03:23:58;;;;;;;40.38;16.25;;;-0.10;99.90;;;;;;5097973;28;25098;-71
2023/01/20 03:26:25;;;;;;;39.72;15.93;;;-0.10;99.90;;;;;;5097018;28;25068;-71
2023/01/20 03:28:53;;;;;;;39.75;16.58;;;-0.10;99.90;;;;;;5097968;28;25103;-71
2023/01/20 03:31:41;;;;;;;39.30;16.42;;;-0.10;99.90;;;;;;5097887;28;25135;-71
2023/01/20 03:34:14;;;;;;;39.78;15.88;;;-0.10;99.90;;;;;;5097926;28;25079;-71
2023/01/20 03:36:44;;;;;;;41.03;16.45;;;0.00;99.90;;;;;;5097652;28;25090;-72
2023/01/20 03:39:11;;;;;;;37.28;16.65;;;0.00;99.90;;;;;;5097905;28;25065;-71
2023/01/20 03:41:57;;;;;;;39.60;18.67;;;0.00;99.90;;;;;;5079725;28;25070;-71
2023/01/20 03:44:53;;;;;;;35.15;15.07;;;0.00;99.90;;;;;;5098465;28;25073;-71
2023/01/20 03:47:32;;;;;;;44.30;17.77;;;-0.10;99.90;;;;;;5079665;28;25063;-72
2023/01/20 03:50:26;;;;;;;44.20;17.25;;;-0.10;99.90;;;;;;5079655;28;25061;-71
2023/01/20 03:53:29;;;;;;;46.65;19.33;;;0.00;99.90;;;;;;5098058;28;25139;-71
2023/01/20 03:56:09;;;;;;;42.72;15.68;;;0.00;99.90;;;;;;5097747;28;25093;-71
2023/01/20 03:58:43;;;;;;;48.63;16.85;;;0.00;99.90;;;;;;5097395;28;25071;-71
2023/01/20 04:01:12;;;;;;;41.22;17.45;;;0.10;99.90;;;;;;5097033;28;25068;-71
2023/01/20 04:03:44;;;;;;;42.28;17.13;;;0.10;99.90;;;;;;5097522;28;25082;-71
2023/01/20 04:06:14;;;;;;;40.90;15.95;;;0.20;99.90;;;;;;5079339;28;25060;-71
2023/01/20 04:08:51;;;;;;;45.35;16.05;;;0.20;99.90;;;;;;5079228;28;25058;-71
2023/01/20 04:11:18;;;;;;;39.92;16.60;;;0.20;99.90;;;;;;5097764;28;25119;-71
2023/01/20 04:13:45;;;;;;;39.38;16.17;;;0.30;99.90;;;;;;5097353;28;25071;-71
2023/01/20 04:16:16;;;;;;;42.88;16.02;;;0.30;99.90;;;;;;5097068;28;25089;-71
2023/01/20 04:18:48;;;;;;;37.05;15.25;;;0.30;99.90;;;;;;5097106;28;25082;-71
2023/01/20 04:21:31;;;;;;;37.92;15.48;;;0.30;99.90;;;;;;5096995;28;25110;-71
2023/01/20 04:24:08;;;;;;;35.97;15.13;;;0.30;99.90;;;;;;5097140;28;25074;-71
2023/01/20 04:26:36;;;;;;;38.95;15.60;;;0.20;99.90;;;;;;5097225;28;25092;-71
2023/01/20 04:29:07;;;;;;;39.20;16.17;;;0.20;99.90;;;;;;5079216;28;25059;-72
2023/01/20 04:31:36;;;;;;;46.20;16.75;;;0.20;99.90;;;;;;5097125;28;25091;-71
2023/01/20 04:34:07;;;;;;;38.53;16.75;;;0.20;99.90;;;;;;5096993;28;25066;-71
2023/01/20 04:36:34;;;;;;;40.67;17.52;;;0.10;99.90;;;;;;5097058;28;25055;-71
2023/01/20 04:39:01;;;;;;;44.15;17.00;;;0.10;99.90;;;;;;5096664;28;25061;-71
2023/01/20 04:41:45;;;;;;;42.75;15.85;;;0.10;99.90;;;;;;5048609;28;25131;-71
2023/01/20 04:44:12;;;;;;;41.90;16.00;;;0.10;99.90;;;;;;5096646;28;25052;-72
2023/01/20 04:46:39;;;;;;;42.03;16.15;;;0.10;99.90;;;;;;5096646;28;25100;-71
2023/01/20 04:49:06;;;;;;;40.78;16.63;;;0.20;99.90;;;;;;5096566;28;25052;-72
2023/01/20 04:51:33;;;;;;;41.58;15.57;;;0.20;99.90;;;;;;5096593;28;25097;-71
2023/01/20 04:54:00;;;;;;;42.53;16.70;;;0.10;99.90;;;;;;5097041;28;25056;-72
2023/01/20 04:56:27;;;;;;;39.33;15.90;;;0.10;99.90;;;;;;5097157;28;25100;-72
2023/01/20 04:58:54;;;;;;;47.15;18.33;;;0.10;99.90;;;;;;5078771;28;25053;-71
2023/01/20 05:01:22;;;;;;;38.95;17.02;;;0.10;99.90;;;;;;5096910;28;25058;-71
2023/01/20 05:03:50;;;;;;;36.20;15.45;;;0.00;99.90;;;;;;5097089;28;25085;-71
2023/01/20 05:06:17;;;;;;;40.53;16.27;;;0.00;99.90;;;;;;5097029;28;25073;-71
2023/01/20 05:08:45;;;;;;;35.00;15.52;;;0.00;99.90;;;;;;5096562;28;25056;-71
2023/01/20 05:11:13;;;;;;;40.25;17.27;;;0.00;99.90;;;;;;5078515;28;25060;-71
2023/01/20 05:13:40;;;;;;;32.28;14.98;;;0.00;99.90;;;;;;5099582;28;25056;-72
2023/01/20 05:16:09;;;;;;;38.88;15.45;;;0.00;99.90;;;;;;5100564;28;25111;-71
2023/01/20 05:18:37;;;;;;;31.90;13.32;;;0.00;99.90;;;;;;5101276;28;25079;-71
2023/01/20 05:21:07;;;;;;;37.65;15.68;;;0.10;99.90;;;;;;5100944;28;25080;-71
2023/01/20 05:23:35;;;;;;;35.75;16.13;;;0.10;99.90;;;;;;5100224;28;25099;-71
2023/01/20 05:26:02;;;;;;;33.67;13.88;;;0.10;99.90;;;;;;5100933;28;25126;-72
2023/01/20 05:28:29;;;;;;;37.65;14.70;;;0.10;99.90;;;;;;5100522;28;25088;-71
2023/01/20 05:30:57;;;;;;;32.60;13.70;;;0.10;99.90;;;;;;5100855;28;25060;-71
2023/01/20 05:33:24;;;;;;;37.05;14.75;;;0.10;99.90;;;;;;5100264;28;25104;-72
2023/01/20 05:35:52;;;;;;;29.77;12.98;;;0.10;99.90;;;;;;5100170;28;25082;-72
2023/01/20 05:38:20;;;;;;;33.83;14.23;;;0.10;99.90;;;;;;5100060;28;25108;-71
2023/01/20 05:40:47;;;;;;;33.55;13.93;;;0.10;99.90;;;;;;5099986;28;25131;-71
2023/01/20 05:43:16;;;;;;;35.70;13.10;;;0.10;99.90;;;;;;5099951;28;25055;-71
2023/01/20 05:45:45;;;;;;;30.35;13.80;;;0.00;99.90;;;;;;5100960;28;25063;-71
2023/01/20 05:48:12;;;;;;;30.80;14.18;;;0.00;99.90;;;;;;5100740;28;25089;-72
2023/01/20 05:50:39;;;;;;;35.67;14.05;;;0.00;99.90;;;;;;5082130;28;25095;-71
2023/01/20 05:53:07;;;;;;;32.08;12.55;;;0.00;99.90;;;;;;5099875;28;25065;-71
2023/01/20 05:55:34;;;;;;;35.00;14.25;;;0.00;99.90;;;;;;5100357;28;25053;-71
2023/01/20 05:58:02;;;;;;;30.23;13.60;;;-0.10;99.90;;;;;;5100350;28;25069;-71
2023/01/20 06:00:29;;;;;;;35.83;13.15;;;-0.10;99.90;;;;;;5099686;28;25073;-71
2023/01/20 06:02:56;;;;;;;31.63;12.52;;;-0.10;99.90;;;;;;5082419;28;25073;-72
2023/01/20 06:05:26;;;;;;;29.17;11.48;;;-0.10;99.90;;;;;;5081611;28;25074;-71
2023/01/20 06:07:56;;;;;;;28.52;11.98;;;-0.20;99.90;;;;;;5099508;28;25054;-71
2023/01/20 06:10:26;;;;;;;27.52;12.48;;;-0.20;99.90;;;;;;5099496;28;25050;-71
2023/01/20 06:12:55;;;;;;;26.25;11.35;;;-0.20;99.90;;;;;;5099826;28;25103;-71
2023/01/20 06:15:24;;;;;;;28.10;12.80;;;-0.20;99.90;;;;;;5099598;28;25064;-71
2023/01/20 06:17:54;;;;;;;31.60;12.43;;;-0.20;99.90;;;;;;5099522;28;25111;-71
2023/01/20 06:20:21;;;;;;;31.05;13.93;;;-0.30;99.90;;;;;;5081282;28;25066;-71
2023/01/20 06:22:54;;;;;;;38.13;15.98;;;-0.30;99.90;;;;;;5099213;28;25068;-71
2023/01/20 06:25:22;;;;;;;33.75;12.95;;;-0.30;99.90;;;;;;5099248;28;25123;-71
2023/01/20 06:27:49;;;;;;;31.42;13.85;;;-0.40;99.90;;;;;;5099160;28;25076;-71
2023/01/20 06:30:17;;;;;;;27.60;13.75;;;-0.40;99.90;;;;;;5099434;28;25109;-71
2023/01/20 06:32:47;;;;;;;27.40;13.40;;;-0.40;99.90;;;;;;5099090;28;25046;-71
2023/01/20 06:35:14;;;;;;;35.13;12.40;;;-0.50;99.90;;;;;;5099083;28;25057;-71
2023/01/20 06:37:41;;;;;;;31.85;13.35;;;-0.50;99.90;;;;;;5077504;28;25066;-71
2023/01/20 06:40:10;;;;;;;26.88;11.32;;;-0.50;99.90;;;;;;5078862;28;25111;-71
2023/01/20 06:42:37;;;;;;;29.45;11.68;;;-0.60;99.90;;;;;;5078951;28;25065;-71
2023/01/20 06:45:05;;;;;;;27.75;13.73;;;-0.60;99.90;;;;;;5077728;28;25087;-71
2023/01/20 06:47:32;;;;;;;35.08;15.23;;;-0.60;99.90;;;;;;5077451;28;25102;-71
2023/01/20 06:49:59;;;;;;;37.30;14.57;;;-0.70;99.90;;;;;;5079078;28;25066;-72
2023/01/20 06:52:27;;;;;;;26.98;12.68;;;-0.70;99.90;;;;;;5078729;28;25087;-72
2023/01/20 06:54:54;;;;;;;28.92;13.32;;;-0.80;99.90;;;;;;5077429;28;25075;-72
2023/01/20 06:57:21;;;;;;;35.45;13.43;;;-0.90;99.90;;;;;;5078921;28;25055;-76
2023/01/20 06:59:49;;;;;;;31.70;14.30;;;-0.90;99.90;;;;;;5078508;28;25065;-85
2023/01/20 07:02:17;;;;;;;36.42;14.18;;;-1.00;99.90;;;;;;5077475;28;25043;-81
2023/01/20 07:04:44;;;;;;;30.50;14.30;;;-1.10;99.90;;;;;;5078758;28;25056;-84
2023/01/20 07:07:12;;;;;;;40.03;15.55;;;-1.20;99.90;;;;;;5078739;28;25073;-84
2023/01/20 07:09:39;;;;;;;41.92;17.70;;;-1.30;99.90;;;;;;5077460;28;25053;-79
2023/01/20 07:12:07;;;;;;;43.90;16.88;;;-1.30;99.90;;;;;;5078423;28;25131;-77
2023/01/20 07:14:34;;;;;;;39.33;16.83;;;-1.40;99.90;;;;;;5078007;28;25065;-78
2023/01/20 07:17:02;;;;;;;43.92;17.38;;;-1.40;99.90;;;;;;5077966;28;25102;-77
2023/01/20 07:19:29;;;;;;;54.53;21.77;;;-1.50;99.90;;;;;;5078229;28;25111;-78
2023/01/20 07:21:57;;;;;;;43.38;17.88;;;-1.50;99.90;;;;;;5076913;28;25080;-82
2023/01/20 07:24:24;;;;;;;48.63;18.70;;;-1.60;99.90;;;;;;5077397;28;25103;-76
2023/01/20 07:26:53;;;;;;;44.90;17.80;;;-1.60;99.90;;;;;;5078361;28;25045;-78
2023/01/20 07:29:20;;;;;;;46.25;18.73;;;-1.60;99.90;;;;;;5078251;28;25097;-80
2023/01/20 07:31:48;;;;;;;41.67;17.25;;;-1.70;99.90;;;;;;5076848;28;25123;-82
2023/01/20 07:34:17;;;;;;;39.95;16.48;;;-1.70;99.90;;;;;;5077823;28;25114;-82
2023/01/20 07:36:44;;;;;;;50.60;17.60;;;-1.70;99.90;;;;;;5075920;28;25104;-79
2023/01/20 07:39:11;;;;;;;39.30;15.98;;;-1.70;99.90;;;;;;5077645;28;25077;-78
2023/01/20 07:41:39;;;;;;;38.25;16.38;;;-1.70;99.90;;;;;;5077516;28;25062;-79
2023/01/20 07:44:07;;;;;;;47.80;17.15;;;-1.70;99.90;;;;;;5076561;28;25148;-78
2023/01/20 07:46:34;;;;;;;41.58;17.70;;;-1.60;99.90;;;;;;5077398;28;25074;-77
2023/01/20 07:49:01;;;;;;;44.13;17.98;;;-1.60;99.90;;;;;;5077395;28;25050;-78
2023/01/20 07:51:29;;;;;;;45.75;17.05;;;-1.50;99.90;;;;;;5076174;28;25046;-79
2023/01/20 07:53:56;;;;;;;44.63;17.35;;;-1.40;99.90;;;;;;5076238;28;25118;-78
2023/01/20 07:56:26;;;;;;;42.58;17.50;;;-1.30;99.90;;;;;;5076112;28;25078;-76
2023/01/20 07:58:54;;;;;;;38.40;15.77;;;-1.20;99.90;;;;;;5077482;28;25068;-76
2023/01/20 08:01:30;;;;;;;42.05;15.43;;;-1.10;99.90;;;;;;5077222;28;25128;-72
2023/01/20 08:04:02;;;;;;;49.30;17.25;;;-1.10;99.90;;;;;;5077781;28;25067;-73
2023/01/20 08:06:30;;;;;;;37.85;15.25;;;-1.00;99.90;;;;;;5075944;28;25085;-73
2023/01/20 08:09:01;;;;;;;37.17;14.48;;;-1.00;99.90;;;;;;5077157;28;25068;-71
2023/01/20 08:11:28;;;;;;;47.30;17.20;;;-1.00;99.90;;;;;;5076854;28;25107;-70
2023/01/20 08:13:56;;;;;;;47.83;20.10;;;-0.90;99.90;;;;;;5077647;28;25121;-74
2023/01/20 08:16:23;;;;;;;42.03;16.60;;;-1.00;99.90;;;;;;5076811;28;25074;-77
2023/01/20 08:18:53;;;;;;;42.90;16.90;;;-1.00;99.90;;;;;;5074293;28;25064;-75
2023/01/20 08:21:27;;;;;;;46.92;18.30;;;-1.00;99.90;;;;;;5076657;28;25114;-71
2023/01/20 08:23:58;;;;;;;37.17;16.52;;;-1.00;99.90;;;;;;5076958;28;25073;-71
2023/01/20 08:26:28;;;;;;;48.05;18.73;;;-1.00;99.90;;;;;;5076960;28;25125;-74
2023/01/20 08:29:03;;;;;;;43.33;15.07;;;-1.00;99.90;;;;;;5076941;28;25084;-72
2023/01/20 08:31:30;;;;;;;27.35;11.90;;;-1.00;99.90;;;;;;5076623;28;25104;-76
2023/01/20 08:33:59;;;;;;;38.90;14.57;;;-1.00;99.90;;;;;;5076817;28;25115;-73
2023/01/20 08:36:29;;;;;;;37.65;16.13;;;-1.00;99.90;;;;;;5078665;28;25152;-75
2023/01/20 08:38:58;;;;;;;36.03;13.48;;;-1.00;99.90;;;;;;5096844;28;25066;-71
2023/01/20 08:41:32;;;;;;;31.13;12.55;;;-1.00;99.90;;;;;;5097196;28;25124;-73
2023/01/20 08:44:03;;;;;;;31.63;13.38;;;-0.90;99.90;;;;;;5078708;28;25119;-73
2023/01/20 08:46:31;;;;;;;28.90;12.63;;;-0.90;99.90;;;;;;5096317;28;25056;-75
2023/01/20 08:48:58;;;;;;;32.42;14.45;;;-0.90;99.90;;;;;;5096190;28;25062;-75
2023/01/20 08:51:29;;;;;;;27.60;13.82;;;-0.80;99.90;;;;;;5097134;28;25100;-75
2023/01/20 08:53:56;;;;;;;28.95;11.70;;;-0.80;99.90;;;;;;5096668;28;25067;-75
2023/01/20 08:56:23;;;;;;;31.50;12.65;;;-0.70;99.90;;;;;;5097008;28;25067;-78
2023/01/20 08:58:52;;;;;;;26.17;11.95;;;-0.70;99.90;;;;;;5078787;28;25133;-72
2023/01/20 09:01:27;;;;;;;31.77;13.00;;;-0.70;99.90;;;;;;5096300;28;25049;-77
2023/01/20 09:03:55;;;;;;;30.40;13.00;;;-0.70;99.90;;;;;;5096717;28;25073;-78
2023/01/20 09:06:23;;;;;;;43.83;16.90;;;-0.60;99.90;;;;;;5096636;28;25080;-76
2023/01/20 09:08:51;;;;;;;46.08;18.80;;;-0.70;99.90;;;;;;5096774;28;25118;-76
2023/01/20 09:11:21;;;;;;;42.60;15.48;;;-0.70;99.90;;;;;;5096214;28;25104;-78
2023/01/20 09:13:48;;;;;;;56.17;16.23;;;-0.70;99.90;;;;;;5096370;28;25090;-74
2023/01/20 09:16:18;;;;;;;33.03;13.88;;;-0.60;99.90;;;;;;5096578;28;25077;-76
2023/01/20 09:18:45;;;;;;;33.67;14.13;;;-0.60;99.90;;;;;;5096445;28;25046;-76
2023/01/20 09:21:13;;;;;;;34.42;14.27;;;-0.60;99.90;;;;;;5096109;28;25107;-76
2023/01/20 09:23:41;;;;;;;29.38;13.05;;;-0.50;99.90;;;;;;5078289;28;25077;-76
2023/01/20 09:26:09;;;;;;;31.13;13.07;;;-0.50;99.90;;;;;;5096812;28;25137;-76
2023/01/20 09:28:36;;;;;;;32.55;13.65;;;-0.50;99.90;;;;;;5096887;28;25125;-76
2023/01/20 09:31:08;;;;;;;27.33;13.57;;;-0.30;99.90;;;;;;5078204;28;25128;-76
2023/01/20 09:33:38;;;;;;;29.67;12.98;;;-0.20;99.90;;;;;;5078304;28;25156;-76
2023/01/20 09:36:10;;;;;;;31.08;11.85;;;-0.10;99.90;;;;;;5096139;28;25073;-77
2023/01/20 09:44:35;;;;;;;24.92;11.88;;;0.30;99.90;;;;;;5096117;28;25085;-77
2023/01/20 09:47:20;;;;;;;30.83;11.57;;;0.40;99.90;;;;;;5096039;28;25095;-77
2023/01/20 09:53:29;;;;;;;26.13;10.40;;;0.70;99.90;;;;;;5095208;28;25046;-77
2023/01/20 09:56:03;;;;;;;22.98;10.45;;;0.80;99.90;;;;;;5078069;28;25055;-75
2023/01/20 09:58:46;;;;;;;22.17;9.48;;;0.90;99.90;;;;;;5096651;28;25084;-75
2023/01/20 10:01:29;;;;;;;21.10;11.18;;;1.00;99.90;;;;;;5099611;28;25067;-75
2023/01/20 10:04:05;;;;;;;23.60;9.15;;;1.00;99.90;;;;;;5099479;28;25078;-76
2023/01/20 10:06:48;;;;;;;21.58;9.20;;;1.10;99.90;;;;;;5099880;28;25109;-75
2023/01/20 10:09:33;;;;;;;24.00;10.30;;;1.20;99.90;;;;;;5081653;28;25068;-76
2023/01/20 10:12:19;;;;;;;20.50;9.07;;;1.20;99.90;;;;;;5099794;28;25061;-75
2023/01/20 10:14:53;;;;;;;19.58;9.45;;;1.20;99.90;;;;;;5099477;28;25089;-76
2023/01/20 10:17:37;;;;;;;19.00;9.43;;;1.30;99.90;;;;;;5081338;28;25114;-74
2023/01/20 10:20:10;;;;;;;18.13;9.90;;;1.30;99.90;;;;;;5099371;28;25065;-77
2023/01/20 10:22:49;;;;;;;19.77;9.82;;;1.40;99.90;;;;;;5099659;28;25118;-77
2023/01/20 10:25:26;;;;;;;15.40;8.68;;;1.40;99.90;;;;;;5099515;28;25137;-76
2023/01/20 10:28:11;;;;;;;19.75;8.43;;;1.50;99.90;;;;;;5099657;28;25122;-76
2023/01/20 10:30:39;;;;;;;23.00;8.85;;;1.60;99.90;;;;;;5099147;28;25063;-76
2023/01/20 10:33:11;;;;;;;22.00;9.07;;;1.70;99.90;;;;;;5099436;28;25064;-76
2023/01/20 10:35:53;;;;;;;19.00;8.95;;;1.70;99.90;;;;;;5099123;28;25058;-76
2023/01/20 10:38:38;;;;;;;18.40;8.07;;;1.80;99.90;;;;;;5077578;28;25062;-77
2023/01/20 10:41:26;;;;;;;18.17;8.57;;;1.90;99.90;;;;;;5078948;28;25107;-75
2023/01/20 10:43:55;;;;;;;19.70;8.73;;;1.90;99.90;;;;;;5079277;28;25075;-75
2023/01/20 10:46:43;;;;;;;19.73;8.55;;;2.00;99.90;;;;;;5077521;28;25125;-75
2023/01/20 10:49:39;;;;;;;16.63;8.15;;;2.10;99.90;;;;;;5077659;28;25064;-74
2023/01/20 10:52:26;;;;;;;19.13;7.65;;;2.20;99.90;;;;;;5078985;28;25058;-75
2023/01/20 10:55:23;;;;;;;15.52;7.80;;;2.20;99.90;;;;;;5078417;28;25049;-73
2023/01/20 10:57:57;;;;;;;20.00;8.23;;;2.30;99.90;;;;;;5078401;28;25057;-74
2023/01/20 11:00:30;;;;;;;22.90;9.35;;;2.40;99.90;;;;;;5077202;28;25098;-75
2023/01/20 11:03:00;;;;;;;17.83;9.20;;;2.30;99.90;;;;;;5078299;28;25126;-75
2023/01/20 11:05:41;;;;;;;21.05;8.77;;;2.40;99.90;;;;;;5078542;28;25064;-75
2023/01/20 11:08:16;;;;;;;15.55;8.15;;;2.40;99.90;;;;;;5078360;28;25106;-75
2023/01/20 11:10:45;;;;;;;17.23;8.52;;;2.50;99.90;;;;;;5077242;28;25084;-74
2023/01/20 11:13:12;;;;;;;24.02;8.63;;;2.50;99.90;;;;;;5078264;28;25067;-75
2023/01/20 11:16:02;;;;;;;21.00;8.73;;;2.50;99.90;;;;;;5078640;28;25095;-75
2023/01/20 11:18:31;;;;;;;16.08;7.75;;;2.60;99.90;;;;;;5078030;28;25156;-76
2023/01/20 11:21:01;;;;;;;18.75;8.55;;;2.50;99.90;;;;;;5078449;28;25048;-73
2023/01/20 11:23:51;;;;;;;21.85;9.73;;;2.60;99.90;;;;;;5078344;28;25123;-72
2023/01/20 11:26:23;;;;;;;19.38;8.05;;;2.70;99.90;;;;;;5077809;28;25119;-78
2023/01/20 11:29:09;;;;;;;19.20;8.35;;;2.70;99.90;;;;;;5078397;28;25072;-74
2023/01/20 11:31:53;;;;;;;20.60;10.20;;;2.70;99.90;;;;;;5078058;28;25063;-75
2023/01/20 11:34:22;;;;;;;18.27;8.55;;;2.80;99.90;;;;;;5077829;28;25061;-73
2023/01/20 11:37:06;;;;;;;15.77;9.18;;;2.90;99.90;;;;;;5080700;28;25088;-73
2023/01/20 11:39:53;;;;;;;19.33;8.77;;;2.90;99.90;;;;;;5097947;28;25056;-75
2023/01/20 11:42:26;;;;;;;18.33;8.23;;;3.00;99.90;;;;;;5079684;28;25073;-73
2023/01/20 11:45:00;;;;;;;20.45;8.18;;;3.10;99.90;;;;;;5079889;28;25129;-75
2023/01/20 11:47:37;;;;;;;19.73;8.05;;;3.20;99.90;;;;;;5097697;28;25058;-72
2023/01/20 11:50:18;;;;;;;16.80;8.73;;;3.20;99.90;;;;;;5097636;28;25133;-73
2023/01/20 11:52:46;;;;;;;16.65;7.97;;;3.20;99.90;;;;;;5098334;28;25068;-72
2023/01/20 11:55:16;;;;;;;14.65;7.50;;;3.20;99.90;;;;;;5097368;28;25059;-74
2023/01/20 11:57:47;;;;;;;14.05;7.00;;;3.20;99.90;;;;;;5079569;28;25075;-72
2023/01/20 12:00:20;;;;;;;16.70;7.88;;;3.20;99.90;;;;;;5097327;28;25044;-72
2023/01/20 12:03:13;;;;;;;13.27;7.15;;;3.20;99.90;;;;;;5098126;28;25073;-72
2023/01/20 12:06:12;;;;;;;15.60;7.47;;;3.20;99.90;;;;;;5097858;28;25069;-72
2023/01/20 12:08:50;;;;;;;14.60;7.35;;;3.20;99.90;;;;;;5090262;28;25096;-72
2023/01/20 12:11:27;;;;;;;14.57;7.28;;;3.30;99.90;;;;;;5079189;28;25125;-72
2023/01/20 12:14:27;;;;;;;16.52;6.80;;;3.30;99.90;;;;;;5097630;28;25067;-72
2023/01/20 12:17:22;;;;;;;12.20;6.30;;;3.30;99.90;;;;;;5096920;28;25051;-72
2023/01/20 12:19:53;;;;;;;13.90;5.93;;;3.40;99.90;;;;;;5097425;28;25078;-71
2023/01/20 12:22:29;;;;;;;15.18;7.07;;;3.40;99.90;;;;;;5078856;28;25078;-73
2023/01/20 12:25:14;;;;;;;14.37;7.60;;;3.40;99.90;;;;;;5078978;28;25069;-76
2023/01/20 12:27:50;;;;;;;13.73;6.72;;;3.40;99.90;;;;;;5097400;28;25053;-72
2023/01/20 12:30:50;;;;;;;14.00;6.90;;;3.40;99.90;;;;;;5097198;28;25051;-75
2023/01/20 12:33:26;;;;;;;13.52;6.47;;;3.30;99.90;;;;;;5096949;28;25056;-73
2023/01/20 12:36:15;;;;;;;13.10;6.97;;;3.30;99.90;;;;;;5096808;28;25053;-72
2023/01/20 12:39:12;;;;;;;13.23;6.90;;;3.20;99.90;;;;;;5096614;28;25072;-72
2023/01/20 12:42:04;;;;;;;18.95;6.72;;;3.10;99.90;;;;;;5096731;28;25115;-72
2023/01/20 12:45:04;;;;;;;15.20;7.32;;;3.00;99.90;;;;;;5096844;28;25063;-71
2023/01/20 12:47:53;;;;;;;14.60;7.40;;;2.90;99.90;;;;;;5096706;28;25077;-72
2023/01/20 12:50:56;;;;;;;13.98;6.72;;;2.80;99.90;;;;;;5096569;28;25070;-71
2023/01/20 12:53:42;;;;;;;14.73;7.10;;;2.80;99.90;;;;;;5097100;28;25077;-72
2023/01/20 12:56:20;;;;;;;14.45;6.78;;;2.80;99.90;;;;;;5096600;28;25061;-71
2023/01/20 12:59:09;;;;;;;16.50;6.90;;;2.70;99.90;;;;;;5078815;28;25062;-72
2023/01/20 13:02:08;;;;;;;11.98;5.97;;;2.70;99.90;;;;;;5096734;28;25065;-71
2023/01/20 13:05:07;;;;;;;16.35;7.10;;;2.70;99.90;;;;;;5097086;28;25106;-71
2023/01/20 13:07:56;;;;;;;16.83;8.30;;;2.70;99.90;;;;;;5096497;28;25080;-71
2023/01/20 13:10:42;;;;;;;16.60;7.05;;;2.70;99.90;;;;;;5096422;28;25103;-71
2023/01/20 13:13:23;;;;;;;13.75;7.93;;;2.70;99.90;;;;;;5096470;28;25095;-72
2023/01/20 13:16:24;;;;;;;14.63;8.02;;;2.60;99.90;;;;;;5096957;28;25098;-72
2023/01/20 13:18:51;;;;;;;21.55;7.05;;;2.60;99.90;;;;;;5096573;28;25070;-72